Time;durP1;ratioP1;P1;durP2;ratioP2;P2;SDS_P1;SDS_P2;PMS_P1;PMS_P2;Temp;Humidity;BMP_temperature;BMP_pressure;BME280_temperature;BME280_humidity;BME280_pressure;Samples;Min_cycle;Max_cycle;Signal;HPM_P1;HPM_P2
2022/10/06 00:00:49;;;;;;;;;;;12.80;99.90;;;;;;6248789;22;19953;-73
2022/10/06 00:03:15;;;;;;;;;;;12.80;99.90;;;;;;6249212;22;19915;-73
2022/10/06 00:05:41;;;;;;;;;;;12.70;99.90;;;;;;6223591;22;19915;-72
2022/10/06 00:08:07;;;;;;;;;;;12.70;99.90;;;;;;6248914;22;19962;-74
2022/10/06 00:10:32;;;;;;;;;;;12.70;99.90;;;;;;6249230;22;19994;-73
2022/10/06 00:12:58;;;;;;;;;;;12.60;99.90;;;;;;6249015;22;19915;-75
2022/10/06 00:15:25;;;;;;;;;;;12.60;99.90;;;;;;6223640;22;19922;-73
2022/10/06 00:17:51;;;;;;;;;;;12.60;99.90;;;;;;6223404;22;19911;-73
2022/10/06 00:20:17;;;;;;;;;;;12.60;99.90;;;;;;6222813;22;19964;-72
2022/10/06 00:22:43;;;;;;;;;;;12.60;99.90;;;;;;6248343;22;19915;-72
2022/10/06 00:25:10;;;;;;;;;;;12.60;99.90;;;;;;6223416;22;19921;-74
2022/10/06 00:27:37;;;;;;;;;;;12.50;99.90;;;;;;6223905;22;19915;-73
2022/10/06 00:30:04;;;;;;;;;;;12.50;99.90;;;;;;6224382;22;19915;-73
2022/10/06 00:32:30;;;;;;;;;;;12.50;99.90;;;;;;6225316;22;19915;-74
2022/10/06 00:34:58;;;;;;;;;;;12.70;99.90;;;;;;6250263;22;20269;-73
2022/10/06 00:37:24;;;;;;;;;;;12.70;99.90;;;;;;6224878;22;19964;-73
2022/10/06 00:39:53;;;;;;;;;;;12.60;99.90;;;;;;6224876;22;19922;-72
2022/10/06 00:42:23;;;;;;;;;;;12.60;99.90;;;;;;6250262;22;19911;-73
2022/10/06 00:44:49;;;;;;;;;;;12.60;99.90;;;;;;6131288;22;2145352;-72
2022/10/06 00:47:14;;;;;;;;;;;12.70;99.90;;;;;;6226326;22;19911;-73
2022/10/06 00:49:40;;;;;;;;;;;12.70;99.90;;;;;;6252012;22;19926;-73
2022/10/06 00:52:09;;;;;;;;;;;12.70;99.90;;;;;;6226297;22;19917;-73
2022/10/06 00:54:35;;;;;;;;;;;12.70;99.90;;;;;;6226528;22;19915;-74
2022/10/06 00:57:02;;;;;;;;;;;12.60;99.90;;;;;;6226510;22;20046;-72
2022/10/06 00:59:27;;;;;;;;;;;12.60;99.90;;;;;;6251923;22;19922;-74
2022/10/06 01:02:13;;;;;;;;;;;12.60;99.90;;;;;;6226884;22;19993;-73
2022/10/06 01:04:40;;;;;;;;;;;12.50;99.90;;;;;;6225248;22;19947;-73
2022/10/06 01:07:10;;;;;;;;;;;12.50;99.90;;;;;;6226846;22;20099;-73
2022/10/06 01:09:36;;;;;;;;;;;12.50;99.90;;;;;;6251703;22;19915;-74
2022/10/06 01:12:04;;;;;;;;;;;12.50;99.90;;;;;;6251780;22;19927;-73
2022/10/06 01:14:30;;;;;;;;;;;12.40;99.90;;;;;;6251758;22;20216;-74
2022/10/06 01:16:58;;;;;;;;;;;12.40;99.90;;;;;;6251253;22;19961;-73
2022/10/06 01:19:34;;;;;;;;;;;12.40;99.90;;;;;;6226344;22;19915;-73
2022/10/06 01:22:04;;;;;;;;;;;12.30;99.90;;;;;;6251668;22;19926;-73
2022/10/06 01:24:30;;;;;;;;;;;12.30;99.90;;;;;;6251295;22;20330;-74
2022/10/06 01:26:56;;;;;;;;;;;12.30;99.90;;;;;;6201221;22;19916;-73
2022/10/06 01:29:22;;;;;;;;;;;12.30;99.90;;;;;;6226178;22;19922;-73
2022/10/06 01:31:48;;;;;;;;;;;12.30;99.90;;;;;;6279122;22;19915;-74
2022/10/06 01:34:16;;;;;;;;;;;12.20;99.90;;;;;;6226326;22;20033;-74
2022/10/06 01:36:42;;;;;;;;;;;12.20;99.90;;;;;;6225771;22;20333;-73
2022/10/06 01:39:08;;;;;;;;;;;12.10;99.90;;;;;;6225406;22;19918;-73
2022/10/06 01:41:33;;;;;;;;;;;12.10;99.90;;;;;;6226279;22;19933;-72
2022/10/06 01:43:59;;;;;;;;;;;12.10;99.90;;;;;;6251236;22;19911;-73
2022/10/06 01:46:30;;;;;;;;;;;12.10;99.90;;;;;;6225523;22;20264;-73
2022/10/06 01:48:55;;;;;;;;;;;12.10;99.90;;;;;;6251708;22;20199;-74
2022/10/06 01:51:21;;;;;;;;;;;12.10;99.90;;;;;;6226124;22;19993;-73
2022/10/06 01:53:50;;;;;;;;;;;12.20;99.90;;;;;;6224396;22;20309;-73
2022/10/06 01:56:16;;;;;;;;;;;12.30;99.90;;;;;;6225199;22;20210;-73
2022/10/06 01:58:44;;;;;;;;;;;12.30;99.90;;;;;;6225786;22;19923;-75
2022/10/06 02:01:13;;;;;;;;;;;12.40;99.90;;;;;;6225390;22;19951;-73
2022/10/06 02:03:50;;;;;;;;;;;12.40;99.90;;;;;;6227047;22;19917;-73
2022/10/06 02:06:18;;;;;;;;;;;12.40;99.90;;;;;;6225639;22;19918;-73
2022/10/06 02:08:46;;;;;;;;;;;12.30;99.90;;;;;;6225626;22;19911;-73
2022/10/06 02:11:12;;;;;;;;;;;12.10;99.90;;;;;;6250499;22;20314;-73
2022/10/06 02:13:37;;;;;;;;;;;12.30;99.90;;;;;;6251351;22;19911;-72
2022/10/06 02:16:12;;;;;;;;;;;12.20;99.90;;;;;;6225681;22;19954;-74
2022/10/06 02:18:38;;;;;;;;;;;12.10;99.90;;;;;;6224287;22;20225;-74
2022/10/06 02:21:06;;;;;;;;;;;12.10;99.90;;;;;;6250784;22;19911;-73
2022/10/06 02:23:32;;;;;;;;;;;12.10;99.90;;;;;;6224656;22;19919;-75
2022/10/06 02:26:04;;;;;;;;;;;12.00;99.90;;;;;;6225806;22;19911;-74
2022/10/06 02:28:30;;;;;;;;;;;12.00;99.90;;;;;;6225617;22;19915;-73
2022/10/06 02:31:14;;;;;;;;;;;12.00;99.90;;;;;;6225293;22;20227;-72
2022/10/06 02:33:39;;;;;;;;;;;12.00;99.90;;;;;;6224630;22;19919;-74
2022/10/06 02:36:24;;;;;;;;;;;11.90;99.90;;;;;;6277692;22;19911;-73
2022/10/06 02:39:00;;;;;;;;;;;11.90;99.90;;;;;;6250768;22;20309;-73
2022/10/06 02:41:32;;;;;;;;;;;11.80;99.90;;;;;;6225396;22;19961;-73
2022/10/06 02:44:07;;;;;;;;;;;11.80;99.90;;;;;;6225594;22;19918;-73
2022/10/06 02:46:36;;;;;;;;;;;11.80;99.90;;;;;;6225524;22;20217;-73
2022/10/06 02:49:12;;;;;;;;;;;11.80;99.90;;;;;;6227453;22;19942;-73
2022/10/06 02:51:40;;;;;;;;;;;11.80;99.90;;;;;;6225016;22;19911;-73
2022/10/06 02:54:09;;;;;;;;;;;11.80;99.90;;;;;;6250668;22;19937;-73
2022/10/06 02:56:36;;;;;;;;;;;11.80;99.90;;;;;;6250823;22;19911;-74
2022/10/06 02:59:05;;;;;;;;;;;11.70;99.90;;;;;;6250394;22;19982;-74
2022/10/06 03:01:33;;;;;;;;;;;11.70;99.90;;;;;;6250127;22;19953;-74
2022/10/06 03:04:04;;;;;;;;;;;11.70;99.90;;;;;;6226051;22;19957;-73
2022/10/06 03:06:30;;;;;;;;;;;11.70;99.90;;;;;;6249991;22;20229;-73
2022/10/06 03:09:02;;;;;;;;;;;11.80;99.90;;;;;;6250632;22;19922;-73
2022/10/06 03:11:31;;;;;;;;;;;11.80;99.90;;;;;;6225886;22;19914;-72
2022/10/06 03:14:03;;;;;;;;;;;11.80;99.90;;;;;;6226036;22;19911;-74
2022/10/06 03:16:39;;;;;;;;;;;11.80;99.90;;;;;;6224874;22;19964;-73
2022/10/06 03:19:08;;;;;;;;;;;11.80;99.90;;;;;;6250566;22;19912;-73
2022/10/06 03:21:35;;;;;;;;;;;11.70;99.90;;;;;;6250226;22;20267;-73
2022/10/06 03:24:06;;;;;;;;;;;11.70;99.90;;;;;;6224836;22;20312;-73
2022/10/06 03:26:38;;;;;;;;;;;11.60;99.90;;;;;;6225354;22;19956;-74
2022/10/06 03:29:04;;;;;;;;;;;11.60;99.90;;;;;;6250356;22;19923;-74
2022/10/06 03:31:36;;;;;;;;;;;11.70;99.90;;;;;;6250507;22;19918;-74
2022/10/06 03:34:04;;;;;;;;;;;11.60;99.90;;;;;;6225161;22;19915;-74
2022/10/06 03:36:35;;;;;;;;;;;11.60;99.90;;;;;;6250441;22;19915;-72
2022/10/06 03:39:05;;;;;;;;;;;11.70;99.90;;;;;;6250523;22;19918;-74
2022/10/06 03:41:32;;;;;;;;;;;11.70;99.90;;;;;;6224586;22;19916;-73
2022/10/06 03:43:58;;;;;;;;;;;11.60;99.90;;;;;;6223957;22;19938;-73
2022/10/06 03:46:25;;;;;;;;;;;11.60;99.90;;;;;;6224281;22;20025;-73
2022/10/06 03:48:54;;;;;;;;;;;11.70;99.90;;;;;;6225156;22;19915;-74
2022/10/06 03:51:26;;;;;;;;;;;11.70;99.90;;;;;;6249919;22;19918;-73
2022/10/06 03:53:55;;;;;;;;;;;11.80;99.90;;;;;;6224530;22;20009;-73
2022/10/06 03:56:30;;;;;;;;;;;11.80;99.90;;;;;;6225599;22;19995;-74
2022/10/06 03:58:56;;;;;;;;;;;11.80;99.90;;;;;;6250200;22;19919;-75
2022/10/06 04:01:27;;;;;;;;;;;11.80;99.90;;;;;;6249812;22;19911;-74
2022/10/06 04:03:55;;;;;;;;;;;11.70;99.90;;;;;;6226195;22;20298;-75
2022/10/06 04:06:25;;;;;;;;;;;11.80;99.90;;;;;;6252274;22;20360;-74
2022/10/06 04:08:56;;;;;;;;;;;11.90;99.90;;;;;;6253398;22;19915;-72
2022/10/06 04:11:28;;;;;;;;;;;11.80;99.90;;;;;;6226941;22;19969;-73
2022/10/06 04:13:58;;;;;;;;;;;11.80;99.90;;;;;;6226795;22;19918;-73
2022/10/06 04:16:25;;;;;;;;;;;11.90;99.90;;;;;;6252537;22;19917;-72
2022/10/06 04:18:58;;;;;;;;;;;11.90;99.90;;;;;;6252709;22;19994;-73
2022/10/06 04:21:24;;;;;;;;;;;11.90;99.90;;;;;;6226675;22;19912;-73
2022/10/06 04:23:53;;;;;;;;;;;11.80;99.90;;;;;;6226886;22;19915;-74
2022/10/06 04:26:25;;;;;;;;;;;11.90;99.90;;;;;;6252057;22;20267;-74
2022/10/06 04:29:03;;;;;;;;;;;11.90;99.90;;;;;;6252159;22;19915;-74
2022/10/06 04:31:42;;;;;;;;;;;11.70;99.90;;;;;;6227508;22;19988;-73
2022/10/06 04:34:13;;;;;;;;;;;11.90;99.90;;;;;;6226863;22;19915;-74
2022/10/06 04:36:41;;;;;;;;;;;11.90;99.90;;;;;;6251773;22;19918;-73
2022/10/06 04:39:15;;;;;;;;;;;11.90;99.90;;;;;;6227139;22;19990;-74
2022/10/06 04:41:50;;;;;;;;;;;12.00;99.90;;;;;;6251127;22;19915;-72
2022/10/06 04:44:15;;;;;;;;;;;11.90;99.90;;;;;;6226665;22;19919;-72
2022/10/06 04:46:46;;;;;;;;;;;11.90;99.90;;;;;;6225561;22;19986;-74
2022/10/06 04:49:15;;;;;;;;;;;11.80;99.90;;;;;;6227034;22;20352;-75
2022/10/06 04:51:46;;;;;;;;;;;11.80;99.90;;;;;;6226490;22;19990;-74
2022/10/06 04:54:21;;;;;;;;;;;11.70;99.90;;;;;;6219876;22;20018;-75
2022/10/06 04:56:49;;;;;;;;;;;11.80;99.90;;;;;;6226265;22;19912;-76
2022/10/06 05:02:22;;;;;;;;;;;11.60;99.90;;;;;;6251274;22;20272;-74
2022/10/06 05:04:50;;;;;;;;;;;11.60;99.90;;;;;;6225911;22;19964;-74
2022/10/06 05:07:21;;;;;;;;;;;11.60;99.90;;;;;;6225378;22;19911;-73
2022/10/06 05:09:47;;;;;;;;;;;11.60;99.90;;;;;;6226344;22;19916;-75
2022/10/06 05:12:12;;;;;;;;;;;11.50;99.90;;;;;;6201052;22;19945;-73
2022/10/06 05:14:41;;;;;;;;;;;11.60;99.90;;;;;;6225460;22;19956;-75
2022/10/06 05:17:07;;;;;;;;;;;11.50;99.90;;;;;;6225976;22;19940;-74
2022/10/06 05:26:14;;;;;;;;;;;11.40;99.90;;;;;;6218309;23;19971;-73
2022/10/06 05:28:43;;;;;;;;;;;11.40;99.90;;;;;;6168364;23;20313;-81
2022/10/06 05:31:44;;;;;;;;;;;11.20;99.90;;;;;;6169192;23;20261;-80
2022/10/06 05:34:38;;;;;;;;;;;11.30;99.90;;;;;;6215793;23;19916;-78
2022/10/06 07:32:45;;;;;;;;;;;13.00;99.90;;;;;;6208818;22;19911;-70
2022/10/06 07:35:31;;;;;;;;;;;13.20;99.90;;;;;;6224712;22;19915;-77
2022/10/06 07:38:27;;;;;;;;;;;;;;;;;;;;;
2022/10/06 07:44:26;;;;;;;;;;;13.50;99.90;;;;;;6275227;22;19943;-73
2022/10/06 07:47:13;;;;;;;;;;;13.50;99.90;;;;;;6158517;23;20007;-78
2022/10/06 07:50:38;;;;;;;;;;;13.70;99.90;;;;;;6161843;23;19952;-74
2022/10/06 07:53:26;;;;;;;;;;;13.70;99.90;;;;;;6094720;23;19963;-73
2022/10/06 07:59:40;;;;;;;;;;;13.90;99.90;;;;;;6178111;23;19911;-73
2022/10/06 08:02:27;;;;;;;;;;;14.00;99.90;;;;;;6084361;23;19920;-74
2022/10/06 08:05:50;;;;;;;;;;;14.10;99.90;;;;;;6133770;23;20441;-75
2022/10/06 08:12:31;;;;;;;;;;;14.30;99.90;;;;;;6133460;23;19917;-74
2022/10/06 08:18:49;;;;;;;;;;;;;;;;;;;;;
2022/10/06 08:25:11;;;;;;;;;;;14.60;99.90;;;;;;6249462;22;19919;-74
2022/10/06 08:28:12;;;;;;;;;;;;;;;;;;;;;
2022/10/06 08:31:31;;;;;;;;;;;14.80;99.90;;;;;;6250838;22;19919;-75
2022/10/06 08:37:40;;;;;;;;;;;14.90;99.90;;;;;;6226988;22;19915;-74
2022/10/06 08:40:23;;;;;;;;;;;15.00;99.90;;;;;;6249354;22;19918;-74
2022/10/06 08:46:43;;;;;;;;;;;15.20;99.90;;;;;;6241095;22;19954;-75
2022/10/06 08:53:03;;;;;;;;;;;15.30;99.90;;;;;;6199805;22;19916;-74
2022/10/06 08:55:56;;;;;;;;;;;15.40;99.90;;;;;;6249919;22;19912;-74
2022/10/06 09:02:40;;;;;;;;;;;15.50;99.90;;;;;;6163973;22;19912;-75
2022/10/06 09:05:28;;;;;;;;;;;;;;;;;;;;;
2022/10/06 09:08:30;;;;;;;;;;;15.60;99.90;;;;;;6250913;22;19919;-74
2022/10/06 09:21:44;;;;;;;;;;;15.50;99.90;;;;;;6247653;22;20276;-76
2022/10/06 09:28:36;;;;;;;;;;;15.80;99.90;;;;;;6154585;23;19912;-77
2022/10/06 09:37:33;;;;;;;;;;;16.00;99.90;;;;;;6095574;23;19921;-75
2022/10/06 09:40:53;;;;;;;;;;;15.90;99.90;;;;;;6092354;23;19913;-75
2022/10/06 09:54:40;;;;;;;;;;;;;;;;;;;;;
2022/10/06 09:57:31;;;;;;;;;;;15.90;99.90;;;;;;5982134;23;20397;-75
2022/10/06 10:00:36;;;;;;;;;;;16.00;99.90;;;;;;6046948;23;19946;-75
2022/10/06 10:10:34;;;;;;;;;;;;;;;;;;;;;
2022/10/06 10:13:59;;;;;;;;;;;;;;;;;;;;;
2022/10/06 10:41:00;;;;;;;;;;;15.90;99.90;;;;;;6023564;23;19917;-75
2022/10/06 11:11:15;;;;;;;;;;;;;;;;;;;;;
2022/10/06 11:14:43;;;;;;;;;;;;;;;;;;;;;
2022/10/06 11:17:51;;;;;;;;;;;16.20;99.90;;;;;;5952357;23;19914;-75
2022/10/06 11:21:13;;;;;;;;;;;;;;;;;;;;;
2022/10/06 11:24:34;;;;;;;;;;;16.20;99.90;;;;;;6041715;23;20300;-74
2022/10/06 11:30:47;;;;;;;;;;;16.10;99.90;;;;;;5985333;23;19957;-74
2022/10/06 11:37:16;;;;;;;;;;;;;;;;;;;;;
2022/10/06 11:40:13;;;;;;;;;;;;;;;;;;;;;
2022/10/06 11:46:52;;;;;;;;;;;;;;;;;;;;;
2022/10/06 11:49:59;;;;;;;;;;;16.20;99.90;;;;;;6099476;23;19921;-74
2022/10/06 11:56:15;;;;;;;;;;;16.30;99.90;;;;;;6183327;23;20212;-75
2022/10/06 11:59:16;;;;;;;;;;;16.20;99.90;;;;;;6178290;23;19912;-75
2022/10/06 12:02:20;;;;;;;;;;;16.20;99.90;;;;;;6133814;23;20005;-75
2022/10/06 12:05:12;;;;;;;;;;;16.20;99.90;;;;;;6099412;23;20041;-75
2022/10/06 12:08:21;;;;;;;;;;;16.10;99.90;;;;;;6107255;23;19978;-75
2022/10/06 12:11:16;;;;;;;;;;;16.10;99.90;;;;;;6121796;23;19944;-74
2022/10/06 12:14:05;;;;;;;;;;;16.10;99.90;;;;;;6128472;23;19935;-74
2022/10/06 12:16:57;;;;;;;;;;;16.10;99.90;;;;;;6202619;23;19938;-74
2022/10/06 12:19:56;;;;;;;;;;;16.00;99.90;;;;;;6165269;23;19912;-74
2022/10/06 12:22:59;;;;;;;;;;;16.10;99.90;;;;;;6153176;23;19919;-74
2022/10/06 12:25:55;;;;;;;;;;;16.10;99.90;;;;;;6084778;23;19917;-75
2022/10/06 12:28:59;;;;;;;;;;;;;;;;;;;;;
2022/10/06 12:31:52;;;;;;;;;;;16.20;99.90;;;;;;6131074;23;19924;-75
2022/10/06 12:38:03;;;;;;;;;;;16.20;99.90;;;;;;6185431;23;19939;-74
2022/10/06 12:44:06;;;;;;;;;;;16.20;99.90;;;;;;6189856;23;19911;-75
2022/10/06 12:47:11;;;;;;;;;;;16.20;99.90;;;;;;6193370;23;19915;-74
2022/10/06 12:50:00;;;;;;;;;;;16.30;99.90;;;;;;6189743;23;19991;-75
2022/10/06 12:52:53;;;;;;;;;;;16.20;99.90;;;;;;6198694;22;20391;-75
2022/10/06 12:56:14;;;;;;;;;;;16.30;99.90;;;;;;6226454;22;20322;-75
2022/10/06 13:01:53;;;;;;;;;;;;;;;;;;;;;
2022/10/06 13:04:46;;;;;;;;;;;16.20;99.90;;;;;;6252033;22;20269;-74
2022/10/06 13:07:17;;;;;;;;;;;16.10;99.90;;;;;;6224398;22;19961;-75
2022/10/06 13:10:05;;;;;;;;;;;16.10;99.90;;;;;;6250948;22;19911;-75
2022/10/06 13:12:56;;;;;;;;;;;;;;;;;;;;;
2022/10/06 13:15:27;;;;;;;;;;;15.90;99.90;;;;;;6250950;22;19922;-73
2022/10/06 13:18:05;;;;;;;;;;;15.90;99.90;;;;;;6224847;22;19915;-74
2022/10/06 13:20:59;;;;;;;;;;;16.00;99.90;;;;;;6278332;22;19918;-74
2022/10/06 13:24:18;;;;;;;;;;;16.00;99.90;;;;;;6225990;22;19977;-74
2022/10/06 13:27:01;;;;;;;;;;;;;;;;;;;;;
2022/10/06 13:29:57;;;;;;;;;;;15.90;99.90;;;;;;6130086;23;19912;-74
2022/10/06 13:32:34;;;;;;;;;;;15.90;99.90;;;;;;6105245;23;19989;-74
2022/10/06 13:35:12;;;;;;;;;;;15.90;99.90;;;;;;6129286;23;19923;-76
2022/10/06 13:37:50;;;;;;;;;;;15.80;99.90;;;;;;6197159;22;19918;-75
2022/10/06 13:41:00;;;;;;;;;;;;;;;;;;;;;
2022/10/06 13:43:48;;;;;;;;;;;15.80;99.90;;;;;;6124518;23;20279;-74
2022/10/06 13:46:39;;;;;;;;;;;15.80;99.90;;;;;;6100782;23;19948;-74
2022/10/06 13:49:56;;;;;;;;;;;15.70;99.90;;;;;;6100439;23;19924;-74
2022/10/06 13:52:50;;;;;;;;;;;15.70;99.90;;;;;;6100394;23;20320;-75
2022/10/06 13:58:53;;;;;;;;;;;;;;;;;;;;;
2022/10/06 14:01:37;;;;;;;;;;;15.60;99.90;;;;;;6124981;23;19916;-74
2022/10/06 14:04:31;;;;;;;;;;;15.60;99.90;;;;;;6125032;23;19944;-74
2022/10/06 14:07:07;;;;;;;;;;;15.60;99.90;;;;;;6124853;23;19913;-74
2022/10/06 14:09:58;;;;;;;;;;;15.60;99.90;;;;;;6079544;23;19924;-73
2022/10/06 14:12:47;;;;;;;;;;;15.60;99.90;;;;;;6009700;23;20314;-74
2022/10/06 14:15:50;;;;;;;;;;;15.50;99.90;;;;;;6015962;23;20344;-75
2022/10/06 14:18:28;;;;;;;;;;;15.50;99.90;;;;;;6041887;23;20350;-74
2022/10/06 14:21:30;;;;;;;;;;;15.50;99.90;;;;;;6105552;23;19940;-74
2022/10/06 14:24:18;;;;;;;;;;;15.40;99.90;;;;;;6106496;23;19913;-74
2022/10/06 14:30:37;;;;;;;;;;;15.50;99.90;;;;;;6082787;23;19939;-75
2022/10/06 14:33:08;;;;;;;;;;;15.40;99.90;;;;;;6129355;23;20344;-74
2022/10/06 14:35:51;;;;;;;;;;;15.30;99.90;;;;;;6154395;23;20336;-75
2022/10/06 14:38:57;;;;;;;;;;;15.30;99.90;;;;;;6204953;23;19915;-74
2022/10/06 14:44:42;;;;;;;;;;;;;;;;;;;;;
2022/10/06 14:47:35;;;;;;;;;;;15.20;99.90;;;;;;6246806;22;20230;-74
2022/10/06 14:50:08;;;;;;;;;;;15.30;99.90;;;;;;6222338;23;19957;-74
2022/10/06 14:53:12;;;;;;;;;;;15.20;99.90;;;;;;6194367;23;19920;-75
2022/10/06 14:55:57;;;;;;;;;;;15.20;99.90;;;;;;6195744;23;19918;-73
2022/10/06 14:59:06;;;;;;;;;;;15.20;99.90;;;;;;6219121;23;20286;-74
2022/10/06 15:01:50;;;;;;;;;;;15.10;99.90;;;;;;6216965;23;20258;-74
2022/10/06 15:04:59;;;;;;;;;;;15.00;99.90;;;;;;6173121;23;19916;-74
2022/10/06 15:10:48;;;;;;;;;;;15.00;99.90;;;;;;6216276;23;19915;-75
2022/10/06 15:14:03;;;;;;;;;;;14.90;99.90;;;;;;6219952;23;19966;-75
2022/10/06 15:17:04;;;;;;;;;;;;;;;;;;;;;
2022/10/06 15:20:00;;;;;;;;;;;14.90;99.90;;;;;;6219444;23;19986;-75
2022/10/06 15:22:43;;;;;;;;;;;14.80;99.90;;;;;;6187122;23;19990;-75
2022/10/06 15:32:01;;;;;;;;;;;;;;;;;;;;;
2022/10/06 15:34:32;;;;;;;;;;;14.70;99.90;;;;;;6219769;23;19912;-75
2022/10/06 15:37:27;;;;;;;;;;;14.60;99.90;;;;;;6259186;22;20336;-75
2022/10/06 15:46:35;;;;;;;;;;;14.50;99.90;;;;;;6249610;22;19921;-74
2022/10/06 15:49:13;;;;;;;;;;;14.40;99.90;;;;;;6221352;22;19923;-74
2022/10/06 15:52:01;;;;;;;;;;;14.30;99.90;;;;;;6230894;22;19916;-75
2022/10/06 16:01:20;;;;;;;;;;;;;;;;;;;;;
2022/10/06 16:05:08;;;;;;;;;;;14.10;99.90;;;;;;6134095;23;20234;-74
2022/10/06 16:07:19;;;;;;;;;;;14.10;99.90;;;;;;6155430;23;19916;-75
2022/10/06 16:10:12;;;;;;;;;;;14.00;99.90;;;;;;6153611;23;19912;-74
2022/10/06 16:13:04;;;;;;;;;;;14.00;99.90;;;;;;6105263;23;19971;-75
2022/10/06 16:15:40;;;;;;;;;;;13.90;99.90;;;;;;6105606;23;20224;-74
2022/10/06 16:21:45;;;;;;;;;;;13.80;99.90;;;;;;6152831;23;19951;-74
2022/10/06 16:24:23;;;;;;;;;;;13.70;99.90;;;;;;6128223;23;19916;-75
2022/10/06 16:27:12;;;;;;;;;;;13.70;99.90;;;;;;6217524;23;19927;-74
2022/10/06 16:29:46;;;;;;;;;;;13.50;99.90;;;;;;6192728;23;19943;-74
2022/10/06 16:32:22;;;;;;;;;;;13.50;99.90;;;;;;6193825;23;19926;-74
2022/10/06 16:35:00;;;;;;;;;;;13.50;99.90;;;;;;6163912;23;20001;-74
2022/10/06 16:37:36;;;;;;;;;;;13.40;99.90;;;;;;6163703;23;19946;-74
2022/10/06 16:40:16;;;;;;;;;;;13.30;99.90;;;;;;6201654;22;19938;-75
2022/10/06 16:43:00;;;;;;;;;;;13.30;99.90;;;;;;6253050;22;19939;-74
2022/10/06 16:45:59;;;;;;;;;;;13.30;99.90;;;;;;6276704;22;19998;-74
2022/10/06 16:48:47;;;;;;;;;;;13.20;99.90;;;;;;6224139;22;20233;-75
2022/10/06 16:51:42;;;;;;;;;;;;;;;;;;;;;
2022/10/06 16:54:23;;;;;;;;;;;13.10;99.90;;;;;;6249780;22;19915;-73
2022/10/06 16:57:05;;;;;;;;;;;13.00;99.90;;;;;;6250132;22;20006;-75
2022/10/06 16:59:54;;;;;;;;;;;12.90;99.90;;;;;;6251867;22;19915;-73
2022/10/06 17:02:25;;;;;;;;;;;12.80;99.90;;;;;;6246385;22;19911;-74
2022/10/06 17:04:56;;;;;;;;;;;12.80;99.90;;;;;;6224207;22;19911;-74
2022/10/06 17:07:28;;;;;;;;;;;12.70;99.90;;;;;;6248753;22;19911;-73
2022/10/06 17:09:56;;;;;;;;;;;12.60;99.90;;;;;;6276213;22;20225;-74
2022/10/06 17:12:36;;;;;;;;;;;12.50;99.90;;;;;;6184155;23;19912;-74
2022/10/06 17:15:34;;;;;;;;;;;12.40;99.90;;;;;;6130691;23;20239;-74
2022/10/06 17:18:29;;;;;;;;;;;12.50;99.90;;;;;;6135296;23;19924;-74
2022/10/06 17:21:44;;;;;;;;;;;12.30;99.90;;;;;;6164185;23;20334;-75
2022/10/06 17:24:54;;;;;;;;;;;12.20;99.90;;;;;;6046312;23;20130;-79
2022/10/06 17:42:12;;;;;;;;;;;11.90;99.90;;;;;;6309125;22;19911;-76
2022/10/06 17:45:15;;;;;;;;;;;;;;;;;;;;;
2022/10/06 17:47:48;;;;;;;;;;;11.80;99.90;;;;;;6280254;22;19911;-78
2022/10/06 17:50:17;;;;;;;;;;;11.80;99.90;;;;;;6256201;22;19915;-72
2022/10/06 17:52:45;;;;;;;;;;;11.70;99.90;;;;;;6256211;22;20241;-74
2022/10/06 17:58:56;;;;;;;;;;;11.60;99.90;;;;;;6309213;22;19964;-81
2022/10/06 18:01:26;;;;;;;;;;;11.60;99.90;;;;;;6282479;22;19972;-77
2022/10/06 18:03:54;;;;;;;;;;;11.50;99.90;;;;;;6255916;22;19911;-78
2022/10/06 18:06:41;;;;;;;;;;;11.50;99.90;;;;;;6258389;22;19918;-81
2022/10/06 18:12:53;;;;;;;;;;;;;;;;;;;;;
2022/10/06 18:19:17;;;;;;;;;;;11.30;99.90;;;;;;6123530;23;19928;-79
2022/10/06 18:25:22;;;;;;;;;;;11.30;99.90;;;;;;6085169;23;19913;-77
2022/10/06 18:27:51;;;;;;;;;;;11.10;99.90;;;;;;6077474;23;19913;-75
2022/10/06 18:34:23;;;;;;;;;;;;;;;;;;;;;
2022/10/06 18:44:10;;;;;;;;;;;;;;;;;;;;;
2022/10/06 18:57:36;;;;;;;;;;;10.90;99.90;;;;;;6066847;23;19913;-78
2022/10/06 19:03:30;;;;;;;;;;;10.70;99.90;;;;;;6067572;23;19954;-77
2022/10/06 19:56:28;;;;;;;;;;;;;;;;;;;;;
2022/10/06 20:13:04;;;;;;;;;;;;;;;;;;;;;
2022/10/06 20:15:46;;;;;;;;;;;;;;;;;;;;;
2022/10/06 20:21:51;;;;;;;;;;;10.60;99.90;;;;;;6244803;23;19915;-75
2022/10/06 22:14:42;;;;;;;;;;;10.50;99.90;;;;;;6153601;23;19915;-83
2022/10/06 22:17:09;;;;;;;;;;;10.50;99.90;;;;;;6130094;23;20258;-78
2022/10/06 22:19:37;;;;;;;;;;;10.50;99.90;;;;;;6129764;23;19976;-73
2022/10/06 22:22:13;;;;;;;;;;;10.50;99.90;;;;;;6220741;22;19911;-76
2022/10/06 22:25:06;;;;;;;;;;;10.50;99.90;;;;;;6250911;22;19946;-72
2022/10/06 22:27:36;;;;;;;;;;;10.50;99.90;;;;;;6277144;22;20345;-72
2022/10/06 22:30:02;;;;;;;;;;;10.50;99.90;;;;;;6225115;22;19919;-73
2022/10/06 22:32:30;;;;;;;;;;;10.50;99.90;;;;;;6223476;22;20413;-72
2022/10/06 22:34:56;;;;;;;;;;;10.50;99.90;;;;;;6250161;22;19966;-72
2022/10/06 22:37:30;;;;;;;;;;;10.50;99.90;;;;;;6250812;22;19922;-72
2022/10/06 22:39:59;;;;;;;;;;;10.50;99.90;;;;;;6225565;22;20237;-72
2022/10/06 22:42:25;;;;;;;;;;;10.40;99.90;;;;;;6250878;22;19994;-72
2022/10/06 22:44:53;;;;;;;;;;;10.40;99.90;;;;;;6250609;22;20257;-72
2022/10/06 22:47:27;;;;;;;;;;;10.40;99.90;;;;;;6225844;22;19915;-73
2022/10/06 22:49:55;;;;;;;;;;;10.40;99.90;;;;;;6250434;22;19926;-71
2022/10/06 22:52:21;;;;;;;;;;;10.50;99.90;;;;;;6273927;22;19915;-72
2022/10/06 22:54:52;;;;;;;;;;;10.50;99.90;;;;;;6226010;22;19915;-73
2022/10/06 22:57:25;;;;;;;;;;;10.50;99.90;;;;;;6225591;22;19915;-72
2022/10/06 22:59:54;;;;;;;;;;;10.50;99.90;;;;;;6250472;22;19915;-72
2022/10/06 23:02:26;;;;;;;;;;;10.40;99.90;;;;;;6250475;22;20273;-72
2022/10/06 23:04:54;;;;;;;;;;;10.50;99.90;;;;;;6224904;22;19916;-72
2022/10/06 23:07:25;;;;;;;;;;;10.40;99.90;;;;;;6225969;22;19938;-73
2022/10/06 23:09:56;;;;;;;;;;;10.40;99.90;;;;;;6250177;22;20381;-72
2022/10/06 23:12:22;;;;;;;;;;;10.50;99.90;;;;;;6226820;22;19915;-73
2022/10/06 23:14:47;;;;;;;;;;;10.40;99.90;;;;;;6225491;22;19915;-72
2022/10/06 23:17:13;;;;;;;;;;;10.40;99.90;;;;;;6250484;22;19950;-73
2022/10/06 23:19:46;;;;;;;;;;;10.40;99.90;;;;;;6224647;22;19966;-73
2022/10/06 23:22:17;;;;;;;;;;;10.40;99.90;;;;;;6250737;22;19982;-72
2022/10/06 23:24:49;;;;;;;;;;;10.40;99.90;;;;;;6225594;22;20241;-72
2022/10/06 23:27:18;;;;;;;;;;;10.60;99.90;;;;;;6225834;22;19911;-72
2022/10/06 23:29:49;;;;;;;;;;;10.40;99.90;;;;;;6249369;22;20282;-72
2022/10/06 23:32:14;;;;;;;;;;;10.40;99.90;;;;;;6200692;22;19915;-73
2022/10/06 23:34:46;;;;;;;;;;;10.40;99.90;;;;;;6225816;22;19911;-73
2022/10/06 23:37:22;;;;;;;;;;;10.20;99.90;;;;;;6223116;22;20218;-72
2022/10/06 23:39:47;;;;;;;;;;;10.40;99.90;;;;;;6249500;22;20392;-73
2022/10/06 23:42:15;;;;;;;;;;;10.40;99.90;;;;;;6250425;22;19954;-72
2022/10/06 23:44:44;;;;;;;;;;;10.40;99.90;;;;;;6225858;22;20337;-71
2022/10/06 23:47:18;;;;;;;;;;;10.40;99.90;;;;;;6250468;22;19992;-72
2022/10/06 23:49:44;;;;;;;;;;;10.50;99.90;;;;;;6249952;22;19937;-72
2022/10/06 23:52:21;;;;;;;;;;;10.40;99.90;;;;;;6224733;22;20314;-72
2022/10/06 23:54:50;;;;;;;;;;;10.40;99.90;;;;;;6250529;22;19912;-73
2022/10/06 23:57:18;;;;;;;;;;;10.50;99.90;;;;;;6248027;22;20230;-72
2022/10/06 23:59:49;;;;;;;;;;;10.40;99.90;;;;;;6245160;22;19979;-71
